createdAt,value
2023-01-27T00:00:15.758Z,-0.83
2023-01-27T00:03:18.433Z,-0.69
2023-01-27T00:06:20.847Z,-0.69
2023-01-27T00:09:23.155Z,-0.73
2023-01-27T00:12:45.385Z,-0.79
2023-01-27T00:15:47.799Z,-0.80
2023-01-27T00:18:50.167Z,-0.75
2023-01-27T00:22:11.400Z,-0.90
2023-01-27T00:25:13.792Z,-0.74
2023-01-27T00:28:23.177Z,-0.64
2023-01-27T00:31:46.008Z,-0.67
2023-01-27T00:34:48.452Z,-0.73
2023-01-27T00:37:50.885Z,-0.69
2023-01-27T00:41:13.360Z,-0.69
2023-01-27T00:44:15.761Z,-0.52
2023-01-27T00:47:18.080Z,-0.44
2023-01-27T00:50:21.094Z,-0.32
2023-01-27T00:53:23.431Z,-0.37
2023-01-27T00:56:28.250Z,-0.12
2023-01-27T00:59:31.887Z,-0.02
2023-01-27T01:02:34.266Z,-0.02
2023-01-27T01:05:37.251Z,-0.01
2023-01-27T01:08:40.102Z,-0.01
2023-01-27T01:11:42.377Z,0.11
2023-01-27T01:14:44.761Z,0.07
2023-01-27T01:17:48.425Z,0.06
2023-01-27T01:20:51.218Z,0.04
2023-01-27T01:23:53.542Z,0.07
2023-01-27T01:26:57.154Z,0.16
2023-01-27T01:30:01.163Z,-0.04
2023-01-27T01:36:27.521Z,0.07
2023-01-27T01:39:31.260Z,0.01
2023-01-27T01:42:54.497Z,0.08
2023-01-27T01:46:01.139Z,0.09
2023-01-27T01:49:04.618Z,0.07
2023-01-27T01:52:12.269Z,0.28
2023-01-27T01:55:14.852Z,0.14
2023-01-27T01:58:17.962Z,0.11
2023-01-27T02:01:20.468Z,0.07
2023-01-27T02:04:27.471Z,0.03
2023-01-27T02:08:05.593Z,0.10
2023-01-27T02:11:09.363Z,-0.00
2023-01-27T02:14:15.134Z,0.05
2023-01-27T02:17:18.082Z,0.14
2023-01-27T02:20:24.731Z,0.13
2023-01-27T02:23:48.978Z,0.25
2023-01-27T02:26:51.696Z,0.23
2023-01-27T02:29:53.977Z,-0.01
2023-01-27T02:32:56.749Z,0.01
2023-01-27T02:35:59.410Z,-0.09
2023-01-27T02:39:03.200Z,0.03
2023-01-27T02:42:07.121Z,0.14
2023-01-27T02:45:11.550Z,0.10
2023-01-27T02:48:15.934Z,-0.07
2023-01-27T02:51:18.734Z,0.23
2023-01-27T02:54:21.236Z,0.29
2023-01-27T02:57:23.594Z,0.25
2023-01-27T03:00:45.549Z,0.04
2023-01-27T03:03:48.499Z,0.20
2023-01-27T03:06:54.511Z,0.10
2023-01-27T03:09:57.002Z,0.26
2023-01-27T03:12:59.400Z,0.17
2023-01-27T03:16:20.864Z,0.05
2023-01-27T03:19:23.832Z,-0.04
2023-01-27T03:22:26.509Z,0.07
2023-01-27T03:25:30.031Z,0.11
2023-01-27T03:28:32.890Z,0.00
2023-01-27T03:31:55.797Z,-0.04
2023-01-27T03:34:58.614Z,-0.10
2023-01-27T03:38:31.335Z,-0.12
2023-01-27T03:41:53.198Z,-0.14
2023-01-27T03:45:15.822Z,-0.31
2023-01-27T03:48:21.153Z,-0.37
2023-01-27T03:51:25.313Z,-0.13
2023-01-27T03:54:27.616Z,-0.14
2023-01-27T03:57:29.943Z,-0.18
2023-01-27T04:00:33.066Z,-0.36
2023-01-27T04:03:54.957Z,-0.44
2023-01-27T04:07:03.012Z,-0.35
2023-01-27T04:10:06.498Z,-0.42
2023-01-27T04:13:09.375Z,-0.33
2023-01-27T04:16:11.984Z,-0.53
2023-01-27T04:19:14.700Z,-0.31
2023-01-27T04:22:17.668Z,-0.29
2023-01-27T04:25:20.182Z,-0.49
2023-01-27T04:28:41.764Z,-0.51
2023-01-27T04:31:46.268Z,-0.26
2023-01-27T04:34:48.749Z,-0.34
2023-01-27T04:37:51.222Z,-0.39
2023-01-27T04:40:53.736Z,-0.43
2023-01-27T04:43:56.056Z,-0.27
2023-01-27T04:46:58.672Z,-0.35
2023-01-27T04:50:00.969Z,-0.24
2023-01-27T04:53:03.288Z,-0.23
2023-01-27T04:56:08.124Z,-0.23
2023-01-27T04:59:15.764Z,-0.22
2023-01-27T05:02:18.063Z,-0.23
2023-01-27T05:05:20.396Z,-0.23
2023-01-27T05:08:22.723Z,-0.26
2023-01-27T05:11:25.113Z,-0.26
2023-01-27T05:14:27.555Z,-0.18
2023-01-27T05:17:33.555Z,-0.19
2023-01-27T05:20:35.807Z,-0.29
2023-01-27T05:23:38.220Z,-0.27
2023-01-27T05:26:40.979Z,-0.22
2023-01-27T05:29:43.274Z,-0.30
2023-01-27T05:32:45.551Z,-0.17
2023-01-27T05:35:47.824Z,-0.05
2023-01-27T05:38:50.576Z,-0.09
2023-01-27T05:41:52.864Z,-0.34
2023-01-27T05:44:55.126Z,-0.29
2023-01-27T05:47:57.551Z,-0.35
2023-01-27T05:51:00.306Z,-0.24
2023-01-27T05:54:02.953Z,-0.40
2023-01-27T05:57:05.259Z,-0.36
2023-01-27T06:00:08.341Z,-0.79
2023-01-27T06:03:10.679Z,-0.07
2023-01-27T06:06:14.115Z,-0.37
2023-01-27T06:09:16.559Z,-0.17
2023-01-27T06:12:18.894Z,-0.16
2023-01-27T06:15:21.301Z,-0.18
2023-01-27T06:18:24.588Z,-0.35
2023-01-27T06:21:27.163Z,-0.27
2023-01-27T06:24:29.853Z,-0.27
2023-01-27T06:27:32.144Z,-0.33
2023-01-27T06:30:35.839Z,-0.19
2023-01-27T06:33:38.386Z,-0.45
2023-01-27T06:36:40.792Z,-0.12
2023-01-27T06:39:43.289Z,-0.33
2023-01-27T06:42:45.635Z,-0.32
2023-01-27T06:45:50.644Z,-0.28
2023-01-27T06:48:53.018Z,-0.26
2023-01-27T06:51:55.279Z,-0.22
2023-01-27T06:54:57.898Z,-0.17
2023-01-27T06:58:02.644Z,-0.27
2023-01-27T07:01:06.998Z,-0.33
2023-01-27T07:04:09.617Z,-0.07
2023-01-27T07:07:12.142Z,-0.11
2023-01-27T07:10:14.858Z,-0.18
2023-01-27T07:13:18.864Z,-0.15
2023-01-27T07:16:21.246Z,-0.20
2023-01-27T07:19:23.665Z,-0.12
2023-01-27T07:22:26.486Z,0.09
2023-01-27T07:25:29.765Z,0.19
2023-01-27T07:28:32.225Z,0.10
2023-01-27T07:31:34.874Z,0.21
2023-01-27T07:34:37.258Z,0.20
2023-01-27T07:37:39.589Z,0.41
2023-01-27T07:40:42.146Z,0.51
2023-01-27T07:43:44.612Z,0.49
2023-01-27T07:46:46.990Z,0.18
2023-01-27T07:49:49.725Z,0.28
2023-01-27T07:52:52.332Z,0.39
2023-01-27T07:55:54.863Z,0.54
2023-01-27T07:58:57.584Z,0.43
2023-01-27T08:02:00.149Z,0.46
2023-01-27T08:05:02.548Z,0.37
2023-01-27T08:08:05.090Z,0.63
2023-01-27T08:11:09.166Z,0.62
2023-01-27T08:14:11.663Z,0.73
2023-01-27T08:17:14.048Z,0.64
2023-01-27T08:20:17.629Z,0.66
2023-01-27T08:23:20.097Z,0.61
2023-01-27T08:26:22.457Z,0.79
2023-01-27T08:29:24.969Z,0.92
2023-01-27T08:32:27.423Z,0.78
2023-01-27T08:35:30.213Z,0.87
2023-01-27T08:38:34.587Z,0.87
2023-01-27T08:41:37.298Z,0.99
2023-01-27T08:44:39.726Z,1.04
2023-01-27T08:47:42.264Z,1.13
2023-01-27T08:50:45.082Z,1.05
2023-01-27T08:53:47.855Z,1.05
2023-01-27T08:56:50.549Z,1.10
2023-01-27T08:59:53.238Z,1.14
2023-01-27T09:02:55.786Z,1.13
2023-01-27T09:05:58.626Z,1.15
2023-01-27T09:09:11.824Z,1.25
2023-01-27T09:12:14.729Z,1.24
2023-01-27T09:15:17.271Z,1.33
2023-01-27T09:18:19.927Z,1.42
2023-01-27T09:21:22.416Z,1.33
2023-01-27T09:24:24.940Z,1.36
2023-01-27T09:27:38.838Z,1.41
2023-01-27T09:30:42.949Z,1.31
2023-01-27T09:33:45.942Z,1.37
2023-01-27T09:36:52.787Z,1.23
2023-01-27T09:39:58.341Z,1.15
2023-01-27T09:43:30.111Z,1.27
2023-01-27T09:46:51.023Z,1.17
2023-01-27T09:50:29.469Z,1.20
2023-01-27T09:53:44.916Z,1.29
2023-01-27T09:56:58.851Z,1.28
2023-01-27T10:00:12.975Z,1.22
2023-01-27T10:03:31.612Z,1.41
2023-01-27T10:07:06.163Z,1.54
2023-01-27T10:10:15.001Z,1.44
2023-01-27T10:13:31.283Z,1.53
2023-01-27T10:16:54.250Z,1.67
2023-01-27T10:20:21.863Z,1.56
2023-01-27T10:23:39.099Z,1.53
2023-01-27T10:27:14.617Z,1.44
2023-01-27T10:30:41.823Z,1.52
2023-01-27T10:33:46.854Z,1.58
2023-01-27T10:37:07.706Z,1.47
2023-01-27T10:40:32.068Z,1.43
2023-01-27T10:43:38.861Z,1.38
2023-01-27T10:46:49.990Z,1.23
2023-01-27T10:49:57.448Z,0.92
2023-01-27T10:53:04.935Z,0.92
2023-01-27T10:56:13.920Z,0.87
2023-01-27T10:59:26.995Z,0.96
2023-01-27T11:02:43.714Z,1.01
2023-01-27T11:05:52.317Z,1.00
2023-01-27T11:09:02.954Z,1.07
2023-01-27T11:12:10.123Z,1.07
2023-01-27T11:15:28.414Z,1.00
2023-01-27T11:18:33.441Z,0.98
2023-01-27T11:21:35.848Z,0.95
2023-01-27T11:24:46.702Z,1.10
2023-01-27T11:27:48.936Z,1.07
2023-01-27T11:31:37.423Z,1.01
2023-01-27T11:35:05.108Z,1.22
2023-01-27T11:38:15.735Z,0.99
2023-01-27T11:41:19.094Z,1.06
2023-01-27T11:44:27.194Z,1.05
2023-01-27T11:47:38.188Z,0.95
2023-01-27T11:50:42.337Z,0.96
2023-01-27T11:53:46.012Z,1.01
2023-01-27T11:56:49.826Z,1.17
2023-01-27T12:00:02.276Z,1.20
2023-01-27T12:03:38.292Z,1.23
2023-01-27T12:07:07.814Z,1.15
2023-01-27T12:10:36.423Z,1.17
2023-01-27T12:13:49.101Z,1.07
2023-01-27T12:16:53.770Z,0.77
2023-01-27T12:19:59.525Z,1.13
2023-01-27T12:23:24.691Z,1.18
2023-01-27T12:26:39.992Z,1.22
2023-01-27T12:29:47.454Z,1.12
2023-01-27T12:32:50.489Z,1.17
2023-01-27T12:35:53.631Z,1.26
2023-01-27T12:39:01.529Z,1.22
2023-01-27T12:42:04.382Z,1.16
2023-01-27T12:45:25.212Z,1.22
2023-01-27T12:48:31.143Z,1.30
2023-01-27T12:51:41.460Z,1.13
2023-01-27T12:54:43.814Z,1.24
2023-01-27T12:57:46.247Z,1.33
2023-01-27T13:00:49.200Z,1.13
2023-01-27T13:03:55.439Z,1.18
2023-01-27T13:07:03.624Z,1.23
2023-01-27T13:10:19.628Z,1.17
2023-01-27T13:13:25.865Z,1.30
2023-01-27T13:16:30.338Z,1.30
2023-01-27T13:19:43.652Z,1.13
2023-01-27T13:22:48.944Z,1.16
2023-01-27T13:26:09.985Z,1.18
2023-01-27T13:29:16.674Z,1.16
2023-01-27T13:32:20.548Z,1.08
2023-01-27T13:35:27.395Z,1.13
2023-01-27T13:38:55.887Z,1.02
2023-01-27T13:42:13.412Z,0.97
2023-01-27T13:45:28.486Z,0.89
2023-01-27T13:48:38.328Z,1.02
2023-01-27T13:51:40.787Z,1.11
2023-01-27T13:54:43.344Z,1.04
2023-01-27T13:57:53.072Z,0.96
2023-01-27T14:01:29.783Z,0.96
2023-01-27T14:05:10.115Z,0.95
2023-01-27T14:08:52.894Z,0.77
2023-01-27T14:12:03.474Z,0.84
2023-01-27T14:15:27.498Z,0.90
2023-01-27T14:18:38.725Z,0.82
2023-01-27T14:21:49.485Z,0.88
2023-01-27T14:25:18.342Z,0.78
2023-01-27T14:28:52.993Z,0.63
2023-01-27T14:32:14.074Z,0.58
2023-01-27T14:35:50.256Z,0.62
2023-01-27T14:39:15.864Z,0.58
2023-01-27T14:42:36.664Z,0.59
2023-01-27T14:45:41.627Z,0.57
2023-01-27T14:49:10.867Z,0.59
2023-01-27T14:52:37.387Z,0.57
2023-01-27T14:56:05.421Z,0.31
2023-01-27T14:59:17.401Z,0.30
2023-01-27T15:02:46.623Z,0.28
2023-01-27T15:05:55.009Z,0.21
2023-01-27T15:09:32.481Z,0.25
2023-01-27T15:12:48.363Z,0.25
2023-01-27T15:15:59.899Z,0.16
2023-01-27T15:19:11.621Z,0.01
2023-01-27T15:22:35.641Z,0.07
2023-01-27T15:25:41.041Z,0.06
2023-01-27T15:28:44.994Z,-0.05
2023-01-27T15:32:27.935Z,0.02
2023-01-27T15:35:36.645Z,-0.03
2023-01-27T15:38:39.221Z,-0.15
2023-01-27T15:42:03.268Z,-0.21
2023-01-27T15:45:05.885Z,-0.33
2023-01-27T15:48:12.648Z,-0.39
2023-01-27T15:51:20.258Z,-0.50
2023-01-27T15:54:29.217Z,-0.29
2023-01-27T15:57:39.677Z,-0.21
2023-01-27T16:00:43.395Z,-0.28
2023-01-27T16:03:48.642Z,-0.29
2023-01-27T16:07:02.429Z,-0.42
2023-01-27T16:10:06.236Z,-0.47
2023-01-27T16:13:29.077Z,-0.50
2023-01-27T16:16:32.443Z,-0.61
2023-01-27T16:19:42.940Z,-0.55
2023-01-27T16:22:48.395Z,-0.67
2023-01-27T16:25:55.819Z,-0.71
2023-01-27T16:29:11.853Z,-0.66
2023-01-27T16:32:19.781Z,-0.75
2023-01-27T16:35:22.565Z,-0.82
2023-01-27T16:38:30.227Z,-0.82
2023-01-27T16:41:38.731Z,-0.87
2023-01-27T16:44:45.039Z,-1.00
2023-01-27T16:48:00.108Z,-0.89
2023-01-27T16:51:13.290Z,-0.85
2023-01-27T16:54:24.146Z,-0.91
2023-01-27T16:57:35.547Z,-0.96
2023-01-27T17:00:39.710Z,-1.01
2023-01-27T17:03:42.923Z,-1.04
2023-01-27T17:06:45.723Z,-1.14
2023-01-27T17:09:53.370Z,-1.24
2023-01-27T17:12:55.778Z,-1.28
2023-01-27T17:15:59.897Z,-1.41
2023-01-27T17:19:07.259Z,-1.58
2023-01-27T17:22:22.907Z,-1.49
2023-01-27T17:25:29.867Z,-1.50
2023-01-27T17:28:32.599Z,-1.38
2023-01-27T17:31:38.830Z,-1.45
2023-01-27T17:34:42.185Z,-1.47
2023-01-27T17:37:44.951Z,-1.71
2023-01-27T17:40:52.991Z,-1.63
2023-01-27T17:44:01.376Z,-1.81
2023-01-27T17:47:04.200Z,-1.79
2023-01-27T17:50:07.281Z,-1.60
2023-01-27T17:53:12.139Z,-1.54
2023-01-27T17:56:21.103Z,-1.47
2023-01-27T17:59:26.718Z,-1.64
2023-01-27T18:02:31.744Z,-1.65
2023-01-27T18:05:34.690Z,-1.63
2023-01-27T18:08:37.220Z,-1.86
2023-01-27T18:11:39.751Z,-1.81
2023-01-27T18:14:42.401Z,-1.64
2023-01-27T18:17:44.833Z,-1.69
2023-01-27T18:20:54.006Z,-1.61
2023-01-27T18:23:58.409Z,-1.67
2023-01-27T18:27:00.822Z,-1.66
2023-01-27T18:30:08.399Z,-1.61
2023-01-27T18:33:12.863Z,-1.79
2023-01-27T18:36:25.868Z,-1.83
2023-01-27T18:39:38.662Z,-1.75
2023-01-27T18:42:41.411Z,-1.71
2023-01-27T18:45:45.195Z,-1.63
2023-01-27T18:48:48.917Z,-1.77
2023-01-27T18:51:51.850Z,-2.26
2023-01-27T18:55:01.227Z,-2.49
2023-01-27T18:58:03.687Z,-2.55
2023-01-27T19:01:11.465Z,-2.56
2023-01-27T19:04:13.960Z,-2.17
2023-01-27T19:07:18.462Z,-2.14
2023-01-27T19:10:25.354Z,-1.96
2023-01-27T19:13:27.774Z,-1.87
2023-01-27T19:16:33.824Z,-1.97
2023-01-27T19:19:36.187Z,-2.07
2023-01-27T19:22:38.828Z,-1.88
2023-01-27T19:25:41.761Z,-1.79
2023-01-27T19:28:44.794Z,-1.99
2023-01-27T19:31:47.141Z,-2.01
2023-01-27T19:34:49.701Z,-1.92
2023-01-27T19:37:52.803Z,-1.97
2023-01-27T19:40:56.137Z,-1.97
2023-01-27T19:43:58.660Z,-1.90
2023-01-27T19:47:01.057Z,-1.95
2023-01-27T19:50:05.162Z,-1.93
2023-01-27T19:53:08.004Z,-1.82
2023-01-27T19:56:18.985Z,-1.77
2023-01-27T19:59:21.566Z,-1.85
2023-01-27T20:02:23.981Z,-1.95
2023-01-27T20:05:28.145Z,-2.01
2023-01-27T20:08:30.763Z,-2.04
2023-01-27T20:11:41.810Z,-1.78
2023-01-27T20:14:44.340Z,-1.90
2023-01-27T20:17:46.888Z,-1.80
2023-01-27T20:20:49.226Z,-1.75
2023-01-27T20:23:52.269Z,-1.76
2023-01-27T20:26:56.529Z,-1.88
2023-01-27T20:29:58.834Z,-1.80
2023-01-27T20:33:03.046Z,-1.94
2023-01-27T20:36:09.753Z,-1.95
2023-01-27T20:39:12.152Z,-1.84
2023-01-27T20:42:14.725Z,-1.88
2023-01-27T20:45:17.814Z,-1.96
2023-01-27T20:48:20.790Z,-1.87
2023-01-27T20:51:23.227Z,-1.90
2023-01-27T20:54:25.591Z,-1.77
2023-01-27T20:57:31.199Z,-1.69
2023-01-27T21:00:33.824Z,-1.72
2023-01-27T21:03:37.002Z,-1.86
2023-01-27T21:06:39.547Z,-1.73
2023-01-27T21:09:41.969Z,-1.76
2023-01-27T21:12:44.610Z,-1.67
2023-01-27T21:15:48.190Z,-1.62
2023-01-27T21:18:50.765Z,-1.79
2023-01-27T21:21:53.181Z,-1.71
2023-01-27T21:24:55.459Z,-1.60
2023-01-27T21:27:57.754Z,-1.75
2023-01-27T21:31:09.130Z,-1.71
2023-01-27T21:34:11.759Z,-1.70
2023-01-27T21:37:14.120Z,-1.69
2023-01-27T21:40:16.608Z,-1.69
2023-01-27T21:43:37.969Z,-1.86
2023-01-27T21:46:40.662Z,-1.76
2023-01-27T21:50:03.109Z,-1.85
2023-01-27T21:53:10.076Z,-1.97
2023-01-27T21:56:12.465Z,-1.86
2023-01-27T21:59:14.848Z,-1.99
2023-01-27T22:02:17.644Z,-1.96
2023-01-27T22:05:20.114Z,-2.13
2023-01-27T22:08:22.519Z,-2.30
2023-01-27T22:11:24.975Z,-2.22
2023-01-27T22:14:29.811Z,-2.02
2023-01-27T22:17:32.283Z,-1.94
2023-01-27T22:20:34.812Z,-1.84
2023-01-27T22:23:37.313Z,-1.81
2023-01-27T22:26:39.977Z,-1.72
2023-01-27T22:29:42.360Z,-1.77
2023-01-27T22:32:49.875Z,-1.83
2023-01-27T22:35:59.846Z,-1.67
2023-01-27T22:39:02.287Z,-1.73
2023-01-27T22:42:05.071Z,-1.70
2023-01-27T22:45:10.939Z,-1.82
2023-01-27T22:48:13.448Z,-1.83
2023-01-27T22:51:16.231Z,-1.94
2023-01-27T22:54:18.698Z,-1.95
2023-01-27T22:57:21.887Z,-1.90
2023-01-27T23:00:24.232Z,-1.96
2023-01-27T23:03:26.877Z,-1.95
2023-01-27T23:06:29.787Z,-1.93
2023-01-27T23:09:32.804Z,-1.94
2023-01-27T23:12:35.322Z,-1.90
2023-01-27T23:15:37.643Z,-1.92
2023-01-27T23:18:40.006Z,-1.78
2023-01-27T23:21:42.747Z,-1.70
2023-01-27T23:24:45.212Z,-1.62
2023-01-27T23:27:47.785Z,-1.66
2023-01-27T23:30:51.073Z,-1.77
2023-01-27T23:33:53.574Z,-1.75
2023-01-27T23:36:56.297Z,-1.83
2023-01-27T23:39:58.990Z,-1.85
2023-01-27T23:43:07.545Z,-1.77
2023-01-27T23:46:09.873Z,-1.88
2023-01-27T23:49:12.859Z,-1.90
2023-01-27T23:52:15.750Z,-1.93
2023-01-27T23:55:18.223Z,-2.00
2023-01-27T23:58:20.716Z,-2.04
